Time;durP1;ratioP1;P1;durP2;ratioP2;P2;SDS_P1;SDS_P2;PMS_P1;PMS_P2;Temp;Humidity;BMP_temperature;BMP_pressure;BME280_temperature;BME280_humidity;BME280_pressure;Samples;Min_cycle;Max_cycle;Signal;HPM_P1;HPM_P2
2021/09/14 00:02:14;;;;;;;15.43;6.68;;;16.00;90.70;;;;;;5012129;28;20029;-79
2021/09/14 00:04:42;;;;;;;12.10;5.93;;;16.00;90.70;;;;;;5012237;28;20030;-79
2021/09/14 00:07:08;;;;;;;10.65;6.18;;;15.90;90.80;;;;;;4996805;28;20478;-79
2021/09/14 00:09:34;;;;;;;12.88;6.88;;;15.90;90.90;;;;;;5028841;28;20033;-79
2021/09/14 00:12:00;;;;;;;11.32;5.97;;;15.90;91.00;;;;;;5013186;28;20505;-80
2021/09/14 00:14:29;;;;;;;12.85;5.78;;;15.90;91.00;;;;;;5013466;28;20018;-78
2021/09/14 00:16:54;;;;;;;11.88;6.60;;;15.90;91.10;;;;;;5012214;28;20029;-78
2021/09/14 00:19:20;;;;;;;10.75;6.43;;;15.80;91.10;;;;;;5011956;28;20026;-78
2021/09/14 00:21:45;;;;;;;12.40;6.43;;;15.80;91.20;;;;;;4996230;28;20026;-79
2021/09/14 00:24:11;;;;;;;14.80;7.50;;;15.80;91.20;;;;;;4995930;28;20021;-79
2021/09/14 00:26:37;;;;;;;10.82;6.32;;;15.80;91.30;;;;;;5013287;28;20026;-79
2021/09/14 00:29:03;;;;;;;12.27;6.65;;;15.70;91.30;;;;;;5028130;28;20104;-78
2021/09/14 00:31:29;;;;;;;12.05;6.38;;;15.80;91.40;;;;;;4998655;28;20029;-80
2021/09/14 00:33:54;;;;;;;14.43;7.18;;;15.70;91.40;;;;;;5015381;28;20038;-79
2021/09/14 00:36:20;;;;;;;11.10;6.97;;;15.70;91.50;;;;;;5015511;28;20033;-78
2021/09/14 00:38:46;;;;;;;13.43;7.25;;;15.70;91.50;;;;;;5015607;28;20100;-78
2021/09/14 00:41:11;;;;;;;11.43;6.78;;;15.60;91.60;;;;;;5016707;28;20030;-79
2021/09/14 00:43:37;;;;;;;13.32;6.78;;;15.60;91.60;;;;;;5016675;28;20073;-79
2021/09/14 00:46:03;;;;;;;14.07;7.15;;;15.60;91.70;;;;;;5016523;28;20069;-79
2021/09/14 00:48:29;;;;;;;10.63;6.57;;;15.60;91.80;;;;;;5015303;28;20053;-78
2021/09/14 00:50:55;;;;;;;12.93;7.30;;;15.60;91.80;;;;;;5016688;28;20037;-78
2021/09/14 00:53:23;;;;;;;12.52;7.55;;;15.60;91.90;;;;;;5031424;28;20037;-78
2021/09/14 00:55:49;;;;;;;13.27;7.35;;;15.60;91.90;;;;;;5016305;28;20054;-78
2021/09/14 00:58:15;;;;;;;13.30;6.80;;;15.60;92.00;;;;;;5016590;28;20176;-78
2021/09/14 01:00:41;;;;;;;13.75;6.93;;;15.50;92.00;;;;;;5031486;28;20502;-78
2021/09/14 01:03:06;;;;;;;13.90;7.47;;;15.60;92.10;;;;;;5016511;28;20018;-78
2021/09/14 01:05:32;;;;;;;14.55;7.55;;;15.50;92.10;;;;;;5014867;28;20390;-77
2021/09/14 01:07:58;;;;;;;11.77;6.90;;;15.50;92.40;;;;;;4998522;28;20030;-78
2021/09/14 01:10:24;;;;;;;12.93;6.90;;;15.50;92.20;;;;;;5015023;28;20026;-78
2021/09/14 01:12:50;;;;;;;14.60;7.03;;;15.40;92.20;;;;;;4998747;28;20049;-79
2021/09/14 01:15:16;;;;;;;13.27;8.00;;;15.40;92.30;;;;;;5014955;28;20446;-78
2021/09/14 01:17:42;;;;;;;13.68;8.02;;;15.40;92.30;;;;;;5016224;28;20064;-79
2021/09/14 01:20:08;;;;;;;13.23;7.82;;;15.40;92.30;;;;;;4998298;28;20030;-78
2021/09/14 01:22:35;;;;;;;11.77;6.88;;;15.30;92.40;;;;;;5016030;28;20034;-78
2021/09/14 01:25:12;;;;;;;14.75;7.90;;;15.30;92.40;;;;;;5014637;28;20057;-79
2021/09/14 01:27:37;;;;;;;12.57;7.70;;;15.40;92.50;;;;;;4999717;28;20022;-79
2021/09/14 01:30:20;;;;;;;18.67;7.75;;;15.30;92.50;;;;;;5014310;28;20108;-78
2021/09/14 01:32:51;;;;;;;13.70;7.53;;;15.30;92.50;;;;;;5015548;28;20030;-79
2021/09/14 01:35:24;;;;;;;10.65;6.82;;;15.30;92.60;;;;;;5015773;28;20069;-79
2021/09/14 01:37:50;;;;;;;20.67;7.07;;;15.30;92.60;;;;;;5015617;28;20026;-79
2021/09/14 01:40:17;;;;;;;11.65;6.97;;;15.30;92.60;;;;;;5015157;28;20273;-78
2021/09/14 01:42:43;;;;;;;14.40;7.97;;;15.20;92.90;;;;;;5015228;28;20034;-80
2021/09/14 01:45:09;;;;;;;14.15;7.68;;;15.30;92.70;;;;;;5015268;28;20061;-79
2021/09/14 01:47:36;;;;;;;12.85;7.05;;;15.30;92.70;;;;;;5014128;28;20030;-79
2021/09/14 01:50:06;;;;;;;13.32;7.68;;;15.20;92.70;;;;;;5013983;28;20501;-80
2021/09/14 01:52:33;;;;;;;13.27;7.28;;;15.20;92.70;;;;;;5015081;28;20474;-79
2021/09/14 01:55:07;;;;;;;13.88;7.95;;;15.20;92.70;;;;;;5013957;28;20021;-80
2021/09/14 01:57:35;;;;;;;16.42;8.13;;;15.20;92.80;;;;;;5015125;28;20499;-80
2021/09/14 02:00:04;;;;;;;14.25;7.20;;;15.20;92.80;;;;;;5015117;28;20045;-80
2021/09/14 02:05:37;;;;;;;12.60;7.22;;;15.20;92.80;;;;;;5015377;28;20053;-79
2021/09/14 02:59:33;;;;;;;15.43;8.20;;;14.80;93.00;;;;;;5015730;28;19940;-79
2021/09/14 03:02:00;;;;;;;16.05;8.73;;;14.80;92.90;;;;;;5012900;28;20035;-79
2021/09/14 03:04:26;;;;;;;15.88;8.23;;;14.80;93.20;;;;;;5014098;28;20087;-80
2021/09/14 03:06:51;;;;;;;15.10;9.00;;;14.80;93.00;;;;;;5013027;28;20022;-79
2021/09/14 03:09:17;;;;;;;14.45;8.93;;;14.70;93.10;;;;;;5028978;28;20053;-78
2021/09/14 03:11:42;;;;;;;12.82;8.10;;;14.70;93.10;;;;;;5013057;28;20386;-78
2021/09/14 03:14:08;;;;;;;15.43;9.40;;;14.70;93.10;;;;;;5014311;28;20034;-78
2021/09/14 03:16:35;;;;;;;14.25;9.20;;;14.70;93.20;;;;;;5013217;28;20363;-78
2021/09/14 03:19:00;;;;;;;16.42;10.23;;;14.70;93.20;;;;;;5012704;28;20442;-78
2021/09/14 03:21:26;;;;;;;16.38;8.90;;;14.70;93.30;;;;;;5007174;28;20061;-78
2021/09/14 03:23:52;;;;;;;18.10;10.27;;;14.70;93.40;;;;;;5009122;28;20033;-78
2021/09/14 03:26:17;;;;;;;16.13;10.07;;;14.70;93.40;;;;;;4992790;28;20126;-79
2021/09/14 03:28:43;;;;;;;17.33;10.50;;;14.70;93.40;;;;;;4960531;28;20058;-78
2021/09/14 03:31:09;;;;;;;18.50;10.73;;;14.70;93.40;;;;;;4992859;28;20465;-78
2021/09/14 03:33:34;;;;;;;17.13;10.98;;;14.60;93.40;;;;;;4976889;28;20034;-79
2021/09/14 03:36:00;;;;;;;23.05;11.30;;;14.60;93.50;;;;;;4961576;28;20046;-79
2021/09/14 03:38:26;;;;;;;17.67;10.07;;;14.60;93.50;;;;;;4994552;28;20026;-78
2021/09/14 03:40:52;;;;;;;18.58;10.07;;;14.60;93.60;;;;;;5009337;28;20549;-78
2021/09/14 03:43:18;;;;;;;18.98;11.40;;;14.50;93.60;;;;;;4993264;28;20031;-79
2021/09/14 03:45:48;;;;;;;18.27;10.93;;;14.60;93.60;;;;;;4961224;28;20062;-79
2021/09/14 03:48:14;;;;;;;18.02;10.68;;;14.60;93.70;;;;;;4993902;28;20026;-78
2021/09/14 03:50:40;;;;;;;18.38;10.15;;;14.60;93.70;;;;;;4992855;28;20030;-79
2021/09/14 03:53:06;;;;;;;17.63;10.20;;;14.60;93.80;;;;;;5009078;28;20037;-78
2021/09/14 03:55:31;;;;;;;17.77;11.52;;;14.50;93.80;;;;;;5009017;28;20471;-78
2021/09/14 03:57:57;;;;;;;18.90;11.35;;;14.50;93.80;;;;;;4993946;28;20019;-78
2021/09/14 04:00:23;;;;;;;19.55;11.38;;;14.50;93.80;;;;;;5009026;28;20027;-78
2021/09/14 04:02:56;;;;;;;20.23;11.90;;;14.50;93.80;;;;;;5008901;28;20056;-78
2021/09/14 04:10:43;;;;;;;19.65;11.25;;;14.40;93.80;;;;;;5015927;28;20062;-78
2021/09/14 04:13:10;;;;;;;20.23;11.98;;;14.50;93.90;;;;;;5016875;28;20054;-77
2021/09/14 04:15:36;;;;;;;20.58;12.15;;;14.50;93.90;;;;;;5016921;28;20494;-79
2021/09/14 04:18:03;;;;;;;16.95;11.25;;;14.50;93.90;;;;;;4999247;28;20030;-80
2021/09/14 04:20:32;;;;;;;19.27;11.48;;;14.40;93.80;;;;;;5016151;28;20524;-79
2021/09/14 04:22:58;;;;;;;17.50;11.30;;;14.40;93.90;;;;;;5016839;28;20025;-79
2021/09/14 04:25:24;;;;;;;18.83;11.82;;;14.40;93.90;;;;;;4999101;28;20088;-79
2021/09/14 04:27:49;;;;;;;19.65;11.98;;;14.40;94.20;;;;;;4999333;28;20026;-80
2021/09/14 04:30:15;;;;;;;21.30;12.73;;;14.40;93.90;;;;;;5016688;28;20041;-79
2021/09/14 04:32:41;;;;;;;20.23;12.20;;;14.40;93.90;;;;;;5031905;28;20080;-80
2021/09/14 04:35:07;;;;;;;21.65;12.40;;;14.40;93.90;;;;;;4999076;28;20129;-80
2021/09/14 04:37:32;;;;;;;22.08;13.38;;;14.40;93.90;;;;;;5016897;28;20057;-79
2021/09/14 04:39:58;;;;;;;22.20;12.93;;;14.30;93.90;;;;;;5031798;28;20022;-79
2021/09/14 04:42:24;;;;;;;20.20;12.30;;;14.30;93.90;;;;;;5032116;28;20037;-79
2021/09/14 04:44:50;;;;;;;22.40;12.90;;;14.30;94.00;;;;;;4998962;28;20368;-79
2021/09/14 04:47:15;;;;;;;20.15;12.63;;;14.30;94.00;;;;;;5016521;28;20544;-79
2021/09/14 04:49:41;;;;;;;19.80;11.75;;;14.30;94.00;;;;;;5015260;28;20053;-79
2021/09/14 04:52:07;;;;;;;20.33;12.65;;;14.30;94.00;;;;;;4982515;28;20474;-79
2021/09/14 04:54:34;;;;;;;22.48;12.75;;;14.30;94.00;;;;;;5016301;28;20026;-80
2021/09/14 04:57:00;;;;;;;19.08;11.88;;;14.20;94.10;;;;;;5014402;28;20076;-80
2021/09/14 04:59:25;;;;;;;21.15;13.55;;;14.20;94.10;;;;;;5016129;28;20026;-79
2021/09/14 05:01:54;;;;;;;25.48;13.88;;;14.20;94.10;;;;;;5016053;28;20404;-80
2021/09/14 05:04:20;;;;;;;22.67;13.45;;;14.20;94.20;;;;;;5015340;28;20030;-81
2021/09/14 05:06:46;;;;;;;19.05;12.18;;;14.10;94.20;;;;;;5016128;28;20029;-81
2021/09/14 05:09:12;;;;;;;20.55;12.80;;;14.20;94.20;;;;;;5014758;28;20014;-80
2021/09/14 05:11:38;;;;;;;24.67;14.18;;;14.10;94.50;;;;;;5014713;28;20378;-80
2021/09/14 05:14:03;;;;;;;20.20;13.48;;;14.20;94.30;;;;;;5016126;28;20030;-79
2021/09/14 05:16:29;;;;;;;18.48;12.98;;;14.20;94.30;;;;;;5013745;28;20428;-79
2021/09/14 05:18:55;;;;;;;21.63;13.70;;;14.20;94.30;;;;;;4998440;28;20030;-79
2021/09/14 05:21:21;;;;;;;21.83;12.65;;;14.20;94.40;;;;;;4982176;28;20105;-80
2021/09/14 05:23:47;;;;;;;20.00;13.40;;;14.20;94.40;;;;;;5014620;28;20125;-81
2021/09/14 05:26:13;;;;;;;20.70;12.85;;;14.10;94.40;;;;;;5015638;28;20026;-81
2021/09/14 05:28:42;;;;;;;21.42;13.43;;;14.20;94.40;;;;;;5014292;28;20037;-80
2021/09/14 05:31:09;;;;;;;23.63;13.05;;;14.20;94.40;;;;;;5015705;28;20026;-80
2021/09/14 05:33:36;;;;;;;22.48;13.82;;;14.20;94.40;;;;;;5015328;28;20038;-80
2021/09/14 05:36:02;;;;;;;23.25;13.90;;;14.20;94.50;;;;;;5015462;28;20489;-80
2021/09/14 05:38:28;;;;;;;21.63;13.18;;;14.20;94.50;;;;;;5015785;28;20053;-81
2021/09/14 05:40:57;;;;;;;21.17;13.40;;;14.30;94.50;;;;;;5014526;28;20053;-80
2021/09/14 05:43:24;;;;;;;21.13;12.65;;;14.20;94.50;;;;;;5030706;28;20026;-80
2021/09/14 05:45:50;;;;;;;20.67;13.75;;;14.30;94.50;;;;;;5015410;28;20030;-80
2021/09/14 05:48:16;;;;;;;19.52;12.82;;;14.30;94.50;;;;;;5014166;28;20036;-81
2021/09/14 05:50:42;;;;;;;21.27;12.45;;;14.30;94.50;;;;;;5030388;28;20034;-81
2021/09/14 05:53:08;;;;;;;21.40;13.57;;;14.40;94.50;;;;;;5015036;28;20030;-81
2021/09/14 05:55:37;;;;;;;21.17;12.45;;;14.40;94.60;;;;;;5014989;28;20093;-80
2021/09/14 05:58:05;;;;;;;20.73;12.60;;;14.40;94.50;;;;;;5030304;28;20014;-79
2021/09/14 06:00:31;;;;;;;22.35;12.65;;;14.50;94.60;;;;;;5012919;28;20045;-81
2021/09/14 06:02:57;;;;;;;20.75;12.68;;;14.50;94.90;;;;;;5014614;28;20025;-82
2021/09/14 06:05:23;;;;;;;20.25;11.88;;;14.60;94.60;;;;;;5015073;28;20034;-81
2021/09/14 06:07:48;;;;;;;19.48;12.27;;;14.60;94.60;;;;;;4997204;28;20117;-82
2021/09/14 06:10:14;;;;;;;17.08;11.63;;;14.70;94.60;;;;;;4980646;28;20095;-83
2021/09/14 06:12:41;;;;;;;21.05;12.23;;;14.70;94.60;;;;;;5014316;28;20026;-82
2021/09/14 06:15:07;;;;;;;18.67;11.98;;;14.70;94.60;;;;;;5013321;28;20029;-81
2021/09/14 06:17:33;;;;;;;19.13;12.68;;;14.80;94.60;;;;;;4996934;28;20378;-80
2021/09/14 06:19:58;;;;;;;19.77;12.60;;;14.80;94.60;;;;;;5014460;28;20030;-81
2021/09/14 06:22:24;;;;;;;20.10;12.48;;;14.90;94.50;;;;;;4996836;28;20550;-81
2021/09/14 06:24:50;;;;;;;18.23;12.23;;;15.00;94.50;;;;;;5014382;28;20034;-77
2021/09/14 06:27:16;;;;;;;20.98;12.80;;;15.00;94.40;;;;;;5014853;28;20037;-77
2021/09/14 06:29:42;;;;;;;19.75;13.00;;;15.10;94.40;;;;;;5014243;28;20156;-77
2021/09/14 06:32:08;;;;;;;20.13;12.05;;;15.10;94.30;;;;;;5013084;28;20033;-78
2021/09/14 06:34:35;;;;;;;15.73;11.70;;;15.20;94.30;;;;;;5013078;28;20018;-77
2021/09/14 06:37:01;;;;;;;19.45;12.27;;;15.20;94.30;;;;;;5014407;28;20026;-77
2021/09/14 06:39:27;;;;;;;17.77;12.57;;;15.30;94.20;;;;;;4996623;28;20072;-77
2021/09/14 06:41:53;;;;;;;18.77;13.23;;;15.30;94.20;;;;;;5012524;28;20022;-77
2021/09/14 06:44:18;;;;;;;20.60;12.73;;;15.40;94.10;;;;;;5013309;28;20022;-78
2021/09/14 06:46:44;;;;;;;18.20;12.10;;;15.40;94.00;;;;;;5014196;28;20026;-77
2021/09/14 06:49:10;;;;;;;16.50;12.20;;;15.50;94.00;;;;;;5013146;28;20091;-78
2021/09/14 06:51:36;;;;;;;19.00;11.75;;;15.50;93.90;;;;;;5014811;28;20458;-77
2021/09/14 06:54:02;;;;;;;17.77;12.68;;;15.60;93.80;;;;;;5012961;28;20041;-77
2021/09/14 06:56:27;;;;;;;17.95;11.23;;;15.60;93.80;;;;;;5012820;28;20026;-78
2021/09/14 06:58:54;;;;;;;20.52;12.10;;;15.60;93.70;;;;;;4996881;28;20030;-77
2021/09/14 07:01:21;;;;;;;17.08;11.32;;;15.70;93.60;;;;;;5014091;28;20026;-78
2021/09/14 07:03:47;;;;;;;18.45;12.45;;;15.70;93.60;;;;;;5014563;28;20026;-78
2021/09/14 07:06:12;;;;;;;21.27;12.90;;;15.70;93.50;;;;;;4996782;28;20049;-78
2021/09/14 07:08:38;;;;;;;17.58;11.38;;;15.70;93.40;;;;;;5014197;28;20061;-78
2021/09/14 07:11:04;;;;;;;17.23;12.40;;;15.80;93.40;;;;;;5012725;28;20057;-78
2021/09/14 07:13:29;;;;;;;17.02;11.45;;;15.80;93.40;;;;;;5013814;28;20331;-77
2021/09/14 07:15:55;;;;;;;18.58;12.75;;;15.80;93.30;;;;;;5012800;28;20026;-78
2021/09/14 07:18:21;;;;;;;17.55;12.38;;;15.90;93.30;;;;;;5013976;28;20018;-78
2021/09/14 07:20:46;;;;;;;17.45;12.85;;;15.90;93.20;;;;;;5012491;28;20545;-77
2021/09/14 07:23:12;;;;;;;20.55;12.80;;;16.00;93.20;;;;;;5013930;28;20034;-78
2021/09/14 07:25:42;;;;;;;16.08;11.50;;;16.00;93.10;;;;;;5013577;28;20034;-78
2021/09/14 07:28:09;;;;;;;18.30;12.13;;;16.00;93.00;;;;;;5012494;28;20038;-78
2021/09/14 07:30:35;;;;;;;18.73;12.38;;;16.10;93.00;;;;;;5013511;28;20046;-78
2021/09/14 07:33:01;;;;;;;17.02;11.65;;;16.10;92.90;;;;;;5012468;28;20080;-78
2021/09/14 07:35:28;;;;;;;16.83;12.40;;;16.20;92.90;;;;;;4995738;28;20022;-77
2021/09/14 07:37:54;;;;;;;17.02;11.60;;;16.20;92.80;;;;;;4996615;28;20037;-77
2021/09/14 07:40:20;;;;;;;15.25;11.15;;;16.20;92.70;;;;;;5019810;28;20030;-77
2021/09/14 07:42:46;;;;;;;17.00;12.30;;;16.30;92.50;;;;;;5018870;28;20520;-77
2021/09/14 07:45:12;;;;;;;14.50;10.45;;;16.30;92.50;;;;;;5002984;28;20107;-78
2021/09/14 07:47:37;;;;;;;16.30;11.93;;;16.30;92.50;;;;;;5020295;28;20084;-78
2021/09/14 07:50:04;;;;;;;17.45;11.82;;;16.40;92.40;;;;;;5019138;28;20113;-77
2021/09/14 07:52:30;;;;;;;16.95;11.57;;;16.40;92.40;;;;;;5018744;28;20433;-78
2021/09/14 07:54:55;;;;;;;18.27;12.25;;;16.50;92.30;;;;;;4986110;28;20080;-78
2021/09/14 07:57:21;;;;;;;16.05;11.38;;;16.50;92.30;;;;;;5012750;28;20054;-77
2021/09/14 07:59:47;;;;;;;16.92;12.90;;;16.50;92.20;;;;;;5008845;28;20109;-76
2021/09/14 08:02:12;;;;;;;19.77;12.02;;;16.60;92.30;;;;;;5002211;28;20033;-76
2021/09/14 08:04:38;;;;;;;17.75;12.25;;;16.60;92.20;;;;;;5019099;28;20029;-77
2021/09/14 08:07:04;;;;;;;18.33;11.70;;;16.60;92.10;;;;;;5018923;28;20497;-77
2021/09/14 08:09:30;;;;;;;18.10;11.30;;;16.70;92.10;;;;;;5002540;28;20117;-77
2021/09/14 08:11:59;;;;;;;15.10;10.82;;;16.70;92.00;;;;;;5018878;28;20022;-77
2021/09/14 08:14:25;;;;;;;14.88;11.40;;;16.70;92.00;;;;;;5020205;28;20117;-77
2021/09/14 08:16:51;;;;;;;16.85;11.65;;;16.80;91.90;;;;;;5020247;28;20480;-76
2021/09/14 08:19:17;;;;;;;15.48;10.38;;;16.80;91.90;;;;;;5020027;28;20108;-77
2021/09/14 08:21:43;;;;;;;15.18;11.45;;;16.90;91.80;;;;;;5002650;28;20033;-77
2021/09/14 08:24:11;;;;;;;16.50;11.63;;;16.90;91.70;;;;;;5018603;28;20056;-78
2021/09/14 08:26:37;;;;;;;17.33;12.25;;;16.90;91.60;;;;;;5019845;28;20026;-77
2021/09/14 08:29:04;;;;;;;16.85;11.57;;;17.00;91.50;;;;;;5018663;28;20133;-77
2021/09/14 08:31:29;;;;;;;19.00;12.38;;;17.00;91.40;;;;;;5020032;28;20022;-78
2021/09/14 08:33:57;;;;;;;18.60;11.98;;;17.10;91.40;;;;;;5019828;28;20076;-77
2021/09/14 08:36:23;;;;;;;15.85;11.48;;;17.10;91.40;;;;;;5018252;28;20037;-77
2021/09/14 08:38:49;;;;;;;14.75;11.38;;;17.20;91.30;;;;;;5018831;28;20029;-77
2021/09/14 08:41:16;;;;;;;14.75;11.85;;;17.30;91.30;;;;;;5018661;28;20579;-77
2021/09/14 08:43:45;;;;;;;16.33;11.15;;;17.40;91.30;;;;;;5019867;28;20030;-78
2021/09/14 08:46:11;;;;;;;18.50;11.75;;;17.50;91.40;;;;;;5018612;28;20025;-77
2021/09/14 08:48:37;;;;;;;15.43;9.52;;;17.60;91.30;;;;;;5018326;28;20037;-77
2021/09/14 08:51:05;;;;;;;16.10;10.68;;;17.70;91.30;;;;;;5032049;28;20059;-77
2021/09/14 08:53:34;;;;;;;16.05;11.20;;;17.90;91.30;;;;;;5016760;28;20022;-77
2021/09/14 08:56:04;;;;;;;17.67;10.70;;;18.00;91.20;;;;;;5016732;28;20030;-77
2021/09/14 08:58:29;;;;;;;12.10;8.95;;;18.20;91.10;;;;;;5015029;28;20018;-77
2021/09/14 09:00:55;;;;;;;13.98;10.38;;;18.30;91.10;;;;;;5010717;28;20442;-77
2021/09/14 09:03:23;;;;;;;15.10;10.75;;;18.50;91.00;;;;;;5027736;28;20049;-77
2021/09/14 09:05:49;;;;;;;15.05;10.52;;;18.70;90.90;;;;;;4996385;28;20026;-77
2021/09/14 09:08:28;;;;;;;15.95;11.10;;;18.80;90.70;;;;;;5010809;28;20038;-77
2021/09/14 09:11:12;;;;;;;15.05;9.98;;;18.90;90.50;;;;;;4995904;28;20415;-78
2021/09/14 09:13:44;;;;;;;15.55;9.68;;;19.10;90.60;;;;;;4996388;28;20026;-77
2021/09/14 09:16:24;;;;;;;15.15;10.43;;;19.30;90.10;;;;;;4996277;28;20093;-77
2021/09/14 09:18:52;;;;;;;12.75;9.68;;;19.40;89.70;;;;;;4996925;28;20033;-76
2021/09/14 09:21:18;;;;;;;14.07;9.38;;;19.60;90.00;;;;;;4996606;28;20021;-77
2021/09/14 09:23:44;;;;;;;17.52;10.02;;;19.60;89.10;;;;;;4996421;28;20041;-77
2021/09/14 09:26:10;;;;;;;13.45;10.13;;;19.80;88.70;;;;;;4995243;28;20031;-78
2021/09/14 09:28:36;;;;;;;13.38;9.73;;;20.00;88.40;;;;;;5011537;28;20441;-78
2021/09/14 09:31:09;;;;;;;15.73;9.95;;;20.20;87.90;;;;;;5005316;28;20032;-77
2021/09/14 09:33:35;;;;;;;12.37;8.60;;;20.40;87.20;;;;;;5014665;28;20045;-78
2021/09/14 09:36:09;;;;;;;15.93;9.48;;;20.60;86.60;;;;;;5015949;28;20105;-78
2021/09/14 09:38:48;;;;;;;;;;;20.80;85.90;;;;;;4998558;28;20026;-77
2021/09/14 09:41:21;;;;;;;12.07;8.00;;;20.90;85.40;;;;;;5015505;28;19913;-77
2021/09/14 09:43:47;;;;;;;12.27;9.65;;;21.10;85.50;;;;;;5016075;28;20033;-77
2021/09/14 09:46:20;;;;;;;13.57;8.88;;;21.20;84.40;;;;;;5014478;28;20040;-78
2021/09/14 09:48:48;;;;;;;12.68;8.60;;;21.30;83.80;;;;;;5015434;28;20374;-77
2021/09/14 09:51:14;;;;;;;10.95;8.32;;;21.40;83.10;;;;;;5014412;28;20479;-78
2021/09/14 09:53:40;;;;;;;17.27;8.35;;;21.60;82.40;;;;;;4997872;28;20036;-78
2021/09/14 09:56:07;;;;;;;12.40;9.25;;;21.70;81.70;;;;;;5011645;28;20057;-78
2021/09/14 09:58:33;;;;;;;15.07;8.55;;;21.80;81.10;;;;;;5024010;28;20486;-77
2021/09/14 10:01:20;;;;;;;9.75;7.15;;;21.90;80.80;;;;;;5015068;28;20018;-77
2021/09/14 10:04:05;;;;;;;9.85;7.45;;;22.00;79.90;;;;;;5014006;28;20026;-78
2021/09/14 10:06:35;;;;;;;11.63;8.23;;;22.10;79.50;;;;;;5013838;28;20026;-82
2021/09/14 10:09:02;;;;;;;14.27;8.75;;;22.10;79.20;;;;;;5013816;28;20018;-82
2021/09/14 10:11:29;;;;;;;11.13;8.40;;;22.30;78.90;;;;;;5030177;28;20030;-83
2021/09/14 10:14:06;;;;;;;13.52;7.72;;;22.40;78.30;;;;;;5015022;28;20120;-81
2021/09/14 10:16:35;;;;;;;9.55;7.57;;;22.60;77.70;;;;;;5013687;28;20026;-81
2021/09/14 10:19:25;;;;;;;11.27;8.88;;;22.70;77.50;;;;;;5013676;28;20056;-79
2021/09/14 10:22:08;;;;;;;10.85;7.82;;;22.80;76.60;;;;;;5014248;28;20026;-82
2021/09/14 10:24:35;;;;;;;11.95;8.57;;;22.90;75.80;;;;;;5013874;28;20026;-81
2021/09/14 10:27:07;;;;;;;11.80;8.48;;;22.90;75.60;;;;;;5013399;28;20359;-81
2021/09/14 10:29:34;;;;;;;10.80;7.88;;;23.00;75.20;;;;;;5014346;28;20038;-81
2021/09/14 10:32:07;;;;;;;10.32;7.75;;;23.00;75.40;;;;;;5014567;28;20040;-81
2021/09/14 10:34:33;;;;;;;9.55;7.63;;;23.10;74.30;;;;;;5013273;28;20038;-80
2021/09/14 10:37:08;;;;;;;10.90;8.77;;;23.20;74.00;;;;;;5013686;28;20030;-81
2021/09/14 10:39:36;;;;;;;11.57;7.93;;;23.30;73.80;;;;;;5014889;28;20058;-81
2021/09/14 10:42:21;;;;;;;10.00;7.85;;;23.40;73.40;;;;;;5014328;28;20030;-82
2021/09/14 10:44:52;;;;;;;11.85;8.30;;;23.50;73.00;;;;;;5013010;28;20418;-81
2021/09/14 10:47:22;;;;;;;12.63;7.85;;;23.70;73.00;;;;;;5014587;28;20080;-78
2021/09/14 10:49:57;;;;;;;11.85;7.55;;;23.90;72.80;;;;;;5013243;28;20113;-78
2021/09/14 10:52:40;;;;;;;9.73;6.95;;;24.00;72.40;;;;;;5010116;28;20022;-79
2021/09/14 10:55:10;;;;;;;10.10;7.38;;;24.30;71.90;;;;;;4994980;28;20021;-78
2021/09/14 10:57:42;;;;;;;10.77;7.35;;;24.50;71.70;;;;;;5014338;28;20021;-82
2021/09/14 11:00:15;;;;;;;7.75;6.32;;;25.00;71.80;;;;;;5013958;28;20029;-82
2021/09/14 11:02:41;;;;;;;8.50;6.35;;;25.90;71.40;;;;;;5013543;28;20052;-78
2021/09/14 11:05:09;;;;;;;9.02;6.13;;;26.90;70.80;;;;;;5013363;28;20026;-78
2021/09/14 11:07:34;;;;;;;7.38;6.10;;;27.70;68.70;;;;;;5003853;28;20033;-79
2021/09/14 11:10:11;;;;;;;8.15;5.50;;;28.60;66.90;;;;;;5012003;28;20022;-77
2021/09/14 11:12:37;;;;;;;8.20;5.57;;;29.20;64.60;;;;;;5026846;28;20026;-77
2021/09/14 11:15:04;;;;;;;8.98;6.03;;;29.60;63.00;;;;;;5011790;28;20045;-79
2021/09/14 11:17:31;;;;;;;7.03;5.57;;;29.90;61.20;;;;;;5013533;28;20100;-77
2021/09/14 11:20:14;;;;;;;7.75;5.25;;;30.30;59.50;;;;;;5011027;28;20426;-78
2021/09/14 11:22:41;;;;;;;;;;;30.80;57.10;;;;;;5010238;28;20044;-75
2021/09/14 11:25:13;;;;;;;7.63;5.30;;;31.50;58.20;;;;;;5011931;28;20330;-76
2021/09/14 11:27:41;;;;;;;9.07;5.20;;;32.00;56.50;;;;;;5013300;28;20505;-80
2021/09/14 11:30:11;;;;;;;6.30;5.70;;;32.40;55.40;;;;;;5012298;28;20041;-81
2021/09/14 11:32:37;;;;;;;6.90;5.72;;;32.50;54.10;;;;;;5013844;28;20030;-84
2021/09/14 11:35:07;;;;;;;6.88;5.07;;;32.70;53.10;;;;;;4981739;28;20021;-81
2021/09/14 11:37:33;;;;;;;6.53;5.13;;;32.90;51.80;;;;;;4993963;28;20033;-80
2021/09/14 11:40:00;;;;;;;5.72;4.65;;;33.10;51.50;;;;;;4976430;28;20023;-81
2021/09/14 11:42:25;;;;;;;7.68;4.80;;;33.30;50.70;;;;;;5010567;28;20036;-81
2021/09/14 11:45:04;;;;;;;6.18;5.40;;;33.30;49.70;;;;;;5013618;28;20029;-84
2021/09/14 11:47:30;;;;;;;9.90;5.97;;;33.20;49.00;;;;;;5028641;28;20019;-82
2021/09/14 11:49:55;;;;;;;6.75;5.35;;;33.30;49.70;;;;;;5012197;28;20048;-80
2021/09/14 11:52:21;;;;;;;6.38;5.15;;;33.20;48.80;;;;;;5020503;28;20033;-78
2021/09/14 11:54:47;;;;;;;4.65;3.75;;;33.40;48.50;;;;;;4991739;28;20034;-77
2021/09/14 11:57:18;;;;;;;6.03;3.97;;;33.50;48.20;;;;;;5012713;28;20041;-76
2021/09/14 11:59:44;;;;;;;5.40;4.10;;;33.60;47.90;;;;;;4998142;28;20026;-78
2021/09/14 12:02:09;;;;;;;6.30;4.10;;;33.50;47.60;;;;;;5013148;28;20509;-76
2021/09/14 12:04:35;;;;;;;6.30;4.13;;;33.50;47.10;;;;;;5012485;28;20084;-76
2021/09/14 12:07:00;;;;;;;6.28;4.53;;;33.50;47.00;;;;;;4994460;28;20030;-77
2021/09/14 12:09:28;;;;;;;6.18;4.07;;;33.60;46.90;;;;;;5012145;28;20041;-77
2021/09/14 12:12:02;;;;;;;5.90;3.55;;;33.60;46.60;;;;;;5013109;28;20026;-77
2021/09/14 12:14:28;;;;;;;5.20;3.17;;;33.60;46.10;;;;;;5012212;28;20053;-77
2021/09/14 12:17:03;;;;;;;5.07;3.33;;;33.60;46.00;;;;;;5012504;28;20049;-76
2021/09/14 12:19:30;;;;;;;2.75;2.28;;;33.60;46.10;;;;;;5012976;28;20022;-77
2021/09/14 12:21:56;;;;;;;4.53;2.42;;;33.50;45.50;;;;;;5003124;28;20018;-76
2021/09/14 12:24:22;;;;;;;4.10;2.55;;;33.40;45.30;;;;;;5011989;28;20473;-76
2021/09/14 12:26:51;;;;;;;6.15;3.40;;;33.40;45.00;;;;;;5015215;28;20033;-77
2021/09/14 12:29:18;;;;;;;3.45;2.38;;;33.20;44.60;;;;;;5016236;28;20571;-78
2021/09/14 12:31:45;;;;;;;7.03;2.97;;;33.00;44.40;;;;;;5011041;28;20092;-77
2021/09/14 12:34:10;;;;;;;6.15;3.40;;;32.90;44.60;;;;;;5003245;28;20030;-78
2021/09/14 12:36:37;;;;;;;7.97;3.08;;;32.70;44.70;;;;;;4995767;28;20485;-78
2021/09/14 12:39:03;;;;;;;4.57;3.15;;;32.50;44.80;;;;;;5007618;28;20104;-79
2021/09/14 12:41:29;;;;;;;6.55;3.38;;;32.40;44.90;;;;;;5028043;28;20026;-78
2021/09/14 12:43:55;;;;;;;3.47;2.60;;;32.30;45.10;;;;;;5004160;28;20435;-77
2021/09/14 12:46:20;;;;;;;5.05;2.53;;;32.20;45.30;;;;;;5016751;28;20048;-76
2021/09/14 12:48:47;;;;;;;3.95;2.53;;;32.00;45.40;;;;;;5032061;28;20498;-77
2021/09/14 12:51:13;;;;;;;3.83;2.33;;;31.90;45.40;;;;;;5016686;28;20030;-79
2021/09/14 12:53:39;;;;;;;4.18;2.85;;;31.80;45.60;;;;;;5014824;28;20025;-78
2021/09/14 12:56:05;;;;;;;4.88;3.53;;;31.80;45.80;;;;;;5016800;28;20654;-77
2021/09/14 12:58:30;;;;;;;6.32;2.78;;;31.90;45.80;;;;;;5016260;28;20037;-76
2021/09/14 13:00:56;;;;;;;4.18;2.50;;;32.00;45.70;;;;;;5016165;28;20037;-78
2021/09/14 13:03:22;;;;;;;3.88;2.28;;;32.20;45.70;;;;;;5032022;28;20030;-77
2021/09/14 13:05:47;;;;;;;4.53;2.28;;;32.30;45.60;;;;;;5031594;28;20038;-79
2021/09/14 13:08:13;;;;;;;7.18;2.88;;;32.50;45.70;;;;;;5030887;28;20478;-76
2021/09/14 13:10:39;;;;;;;8.38;3.40;;;32.60;45.70;;;;;;5016443;28;20065;-77
2021/09/14 13:18:35;;;;;;;7.15;3.58;;;32.60;45.40;;;;;;5016498;28;20540;-79
2021/09/14 13:21:01;;;;;;;5.03;3.80;;;32.50;45.50;;;;;;5016388;28;20061;-76
2021/09/14 13:23:27;;;;;;;8.85;3.25;;;32.30;45.50;;;;;;5016244;28;20038;-77
2021/09/14 13:25:53;;;;;;;4.47;3.10;;;32.20;46.30;;;;;;5016224;28;20092;-76
2021/09/14 13:28:19;;;;;;;6.47;3.30;;;32.00;46.00;;;;;;5015810;28;20037;-79
2021/09/14 13:30:45;;;;;;;5.65;3.65;;;31.90;46.30;;;;;;5015957;28;20438;-77
2021/09/14 13:33:11;;;;;;;5.97;3.72;;;31.70;46.50;;;;;;5025506;28;20045;-77
2021/09/14 13:35:36;;;;;;;6.97;4.07;;;31.50;46.80;;;;;;5014111;28;20041;-79
2021/09/14 13:38:02;;;;;;;6.90;4.38;;;31.30;47.00;;;;;;5030118;28;20485;-78
2021/09/14 13:40:28;;;;;;;8.35;3.88;;;31.00;47.30;;;;;;5014254;28;20022;-76
2021/09/14 13:42:56;;;;;;;6.13;4.35;;;30.80;47.70;;;;;;5015442;28;20040;-76